Estación Meteorológica Peña el Pijo (Robertgarden) [ 07/19/24 13:06:35 CEST ]

Fecha Hora Presion(HPa) Temp (°C) Humedad % Rocio (°C) Viento ( m/s) Direccion Lluvia 1Hora(mm) Lluvia 24H(mm) LLuvia Total(mm)
2011-Mar-15 01:01:16 994.600 5.9 89 4.2         57.49
2011-Mar-15 02:01:14 994.500 5.6 91 4.2         57.49
2011-Mar-15 03:01:15 994.300 5.3 91 4.0         57.49
2011-Mar-15 04:01:15 994.100 5.8 90 4.3         57.49
2011-Mar-15 05:01:14 993.800 5.3 89 3.6         57.49
2011-Mar-15 06:01:15 994.100 4.8 90 3.3         57.49
2011-Mar-15 07:01:14 994.200 5.1 91 3.8         57.49
2011-Mar-15 08:01:47 994.200 5.6 88 3.8         57.49
2011-Mar-15 09:01:49 994.800 6.5 82 3.6         57.49
2011-Mar-15 10:01:47 995.500 6.8 79 3.4         57.49
2011-Mar-15 11:01:48 996.200 7.2 75 3.0         57.49
2011-Mar-15 12:01:47 996.200 8.4 66 2.4         57.49
2011-Mar-15 13:01:19 996.600 11.2 52 1.7 1.9 E     57.49
2011-Mar-15 14:01:12 996.600 10.8 52 1.3 1.9 SE     57.49
2011-Mar-15 15:01:17 996.200 12.5 47 1.4         57.49
2011-Mar-15 16:01:14 996.700 10.9 50 0.9 1.1 ENE     57.49
2011-Mar-15 17:01:14 996.900 10.5 53 1.3         57.49
2011-Mar-15 18:01:20 997.000 8.7 57 0.6         57.49
2011-Mar-15 19:01:17 997.600 7.2 60 -0.0         57.49
2011-Mar-15 20:01:17 998.400 5.8 65 -0.3         57.49
2011-Mar-15 21:01:13 998.900 5.7 67 0.0         57.49
2011-Mar-15 22:01:14 999.000 5.3 68 -0.1         57.49
2011-Mar-15 23:01:15 999.500 4.6 69 -0.6         57.49

Temperatura Máxima:12°    Temperatura Mínima:
Presión Máxima:999.500 Hpa    Presión Mínima:993.800 Hpa


Volver